sensor_id;sensor_type;location;lat;lon;timestamp;P1;durP1;ratioP1;P2;durP2;ratioP2
75059;SDS011;63640;59.264;18.116;2022-11-15T00:01:44;3.95;;;1.40;;
75059;SDS011;63640;59.264;18.116;2022-11-15T00:04:10;3.78;;;1.05;;
75059;SDS011;63640;59.264;18.116;2022-11-15T00:06:35;3.85;;;1.30;;
75059;SDS011;63640;59.264;18.116;2022-11-15T00:09:01;5.82;;;2.00;;
75059;SDS011;63640;59.264;18.116;2022-11-15T00:11:27;5.40;;;1.88;;
75059;SDS011;63640;59.264;18.116;2022-11-15T00:13:56;4.38;;;1.92;;
75059;SDS011;63640;59.264;18.116;2022-11-15T00:16:22;4.00;;;1.38;;
75059;SDS011;63640;59.264;18.116;2022-11-15T00:18:48;4.53;;;1.40;;
75059;SDS011;63640;59.264;18.116;2022-11-15T00:21:14;3.95;;;1.30;;
75059;SDS011;63640;59.264;18.116;2022-11-15T00:23:40;4.22;;;1.75;;
75059;SDS011;63640;59.264;18.116;2022-11-15T00:26:06;4.28;;;1.52;;
75059;SDS011;63640;59.264;18.116;2022-11-15T00:28:32;3.35;;;1.17;;
75059;SDS011;63640;59.264;18.116;2022-11-15T00:31:04;3.47;;;1.33;;
75059;SDS011;63640;59.264;18.116;2022-11-15T00:33:31;3.33;;;1.30;;
75059;SDS011;63640;59.264;18.116;2022-11-15T00:36:01;3.65;;;1.35;;
75059;SDS011;63640;59.264;18.116;2022-11-15T00:38:34;5.65;;;1.70;;
75059;SDS011;63640;59.264;18.116;2022-11-15T00:41:01;4.28;;;1.85;;
75059;SDS011;63640;59.264;18.116;2022-11-15T00:43:28;4.47;;;1.80;;
75059;SDS011;63640;59.264;18.116;2022-11-15T00:45:53;4.93;;;2.10;;
75059;SDS011;63640;59.264;18.116;2022-11-15T00:48:19;4.88;;;1.85;;
75059;SDS011;63640;59.264;18.116;2022-11-15T00:50:44;5.28;;;2.20;;
75059;SDS011;63640;59.264;18.116;2022-11-15T00:53:10;4.78;;;2.10;;
75059;SDS011;63640;59.264;18.116;2022-11-15T00:55:35;4.70;;;2.00;;
75059;SDS011;63640;59.264;18.116;2022-11-15T00:58:01;4.35;;;1.70;;
75059;SDS011;63640;59.264;18.116;2022-11-15T01:00:27;5.90;;;2.05;;
75059;SDS011;63640;59.264;18.116;2022-11-15T01:02:53;5.20;;;1.90;;
75059;SDS011;63640;59.264;18.116;2022-11-15T01:05:18;4.72;;;1.80;;
75059;SDS011;63640;59.264;18.116;2022-11-15T01:07:43;4.03;;;1.80;;
75059;SDS011;63640;59.264;18.116;2022-11-15T01:10:09;3.80;;;1.52;;
75059;SDS011;63640;59.264;18.116;2022-11-15T01:12:34;4.05;;;1.70;;
75059;SDS011;63640;59.264;18.116;2022-11-15T01:15:00;4.90;;;1.80;;
75059;SDS011;63640;59.264;18.116;2022-11-15T01:17:26;3.78;;;1.50;;
75059;SDS011;63640;59.264;18.116;2022-11-15T01:19:51;4.20;;;1.60;;
75059;SDS011;63640;59.264;18.116;2022-11-15T01:22:17;4.70;;;1.80;;
75059;SDS011;63640;59.264;18.116;2022-11-15T01:24:42;5.18;;;1.80;;
75059;SDS011;63640;59.264;18.116;2022-11-15T01:27:08;6.57;;;2.05;;
75059;SDS011;63640;59.264;18.116;2022-11-15T01:29:34;4.95;;;2.22;;
75059;SDS011;63640;59.264;18.116;2022-11-15T01:31:59;4.47;;;1.95;;
75059;SDS011;63640;59.264;18.116;2022-11-15T01:34:25;5.10;;;2.45;;
75059;SDS011;63640;59.264;18.116;2022-11-15T01:36:50;5.95;;;2.47;;
75059;SDS011;63640;59.264;18.116;2022-11-15T01:39:15;5.20;;;2.05;;
75059;SDS011;63640;59.264;18.116;2022-11-15T01:41:41;6.32;;;2.00;;
75059;SDS011;63640;59.264;18.116;2022-11-15T01:48:11;4.53;;;1.70;;
75059;SDS011;63640;59.264;18.116;2022-11-15T01:50:12;4.63;;;2.03;;
75059;SDS011;63640;59.264;18.116;2022-11-15T01:52:41;5.70;;;2.33;;
75059;SDS011;63640;59.264;18.116;2022-11-15T01:57:44;5.38;;;2.13;;
75059;SDS011;63640;59.264;18.116;2022-11-15T02:00:12;5.90;;;2.50;;
75059;SDS011;63640;59.264;18.116;2022-11-15T02:02:38;7.05;;;2.42;;
75059;SDS011;63640;59.264;18.116;2022-11-15T02:05:04;6.38;;;2.40;;
75059;SDS011;63640;59.264;18.116;2022-11-15T02:07:30;5.15;;;1.92;;
75059;SDS011;63640;59.264;18.116;2022-11-15T02:10:02;4.78;;;1.20;;
75059;SDS011;63640;59.264;18.116;2022-11-15T02:12:32;3.83;;;1.40;;
75059;SDS011;63640;59.264;18.116;2022-11-15T02:14:58;4.05;;;1.38;;
75059;SDS011;63640;59.264;18.116;2022-11-15T02:31:45;5.32;;;1.20;;
75059;SDS011;63640;59.264;18.116;2022-11-15T02:39:51;4.95;;;1.48;;
75059;SDS011;63640;59.264;18.116;2022-11-15T02:42:24;4.30;;;1.58;;
75059;SDS011;63640;59.264;18.116;2022-11-15T02:45:10;6.22;;;2.10;;
75059;SDS011;63640;59.264;18.116;2022-11-15T02:47:42;4.03;;;1.60;;
75059;SDS011;63640;59.264;18.116;2022-11-15T02:50:10;5.00;;;1.88;;
75059;SDS011;63640;59.264;18.116;2022-11-15T02:52:37;6.38;;;2.50;;
75059;SDS011;63640;59.264;18.116;2022-11-15T02:55:02;6.43;;;2.70;;
75059;SDS011;63640;59.264;18.116;2022-11-15T03:07:51;7.13;;;3.20;;
75059;SDS011;63640;59.264;18.116;2022-11-15T03:10:21;7.68;;;3.50;;
75059;SDS011;63640;59.264;18.116;2022-11-15T03:15:49;7.25;;;3.03;;
75059;SDS011;63640;59.264;18.116;2022-11-15T03:18:32;7.15;;;2.40;;
75059;SDS011;63640;59.264;18.116;2022-11-15T03:21:00;5.93;;;2.53;;
75059;SDS011;63640;59.264;18.116;2022-11-15T03:23:27;6.75;;;2.90;;
75059;SDS011;63640;59.264;18.116;2022-11-15T03:25:54;6.10;;;2.90;;
75059;SDS011;63640;59.264;18.116;2022-11-15T03:28:23;5.75;;;2.33;;
75059;SDS011;63640;59.264;18.116;2022-11-15T03:30:51;5.38;;;2.30;;
75059;SDS011;63640;59.264;18.116;2022-11-15T03:33:17;5.25;;;1.85;;
75059;SDS011;63640;59.264;18.116;2022-11-15T03:35:44;4.03;;;1.70;;
75059;SDS011;63640;59.264;18.116;2022-11-15T03:40:55;3.55;;;1.27;;
75059;SDS011;63640;59.264;18.116;2022-11-15T03:43:29;4.97;;;1.42;;
75059;SDS011;63640;59.264;18.116;2022-11-15T03:46:07;3.63;;;1.40;;
75059;SDS011;63640;59.264;18.116;2022-11-15T03:48:40;2.75;;;1.05;;
75059;SDS011;63640;59.264;18.116;2022-11-15T03:51:08;3.60;;;1.35;;
75059;SDS011;63640;59.264;18.116;2022-11-15T03:53:34;4.30;;;1.55;;
75059;SDS011;63640;59.264;18.116;2022-11-15T03:56:00;5.90;;;1.60;;
75059;SDS011;63640;59.264;18.116;2022-11-15T03:58:25;5.00;;;1.67;;
75059;SDS011;63640;59.264;18.116;2022-11-15T04:00:50;5.35;;;1.70;;
75059;SDS011;63640;59.264;18.116;2022-11-15T04:03:16;5.32;;;1.95;;
75059;SDS011;63640;59.264;18.116;2022-11-15T04:05:42;5.03;;;1.55;;
75059;SDS011;63640;59.264;18.116;2022-11-15T04:08:07;6.35;;;2.20;;
75059;SDS011;63640;59.264;18.116;2022-11-15T04:10:32;4.22;;;1.60;;
75059;SDS011;63640;59.264;18.116;2022-11-15T04:12:58;5.90;;;2.25;;
75059;SDS011;63640;59.264;18.116;2022-11-15T04:15:23;4.80;;;1.98;;
75059;SDS011;63640;59.264;18.116;2022-11-15T04:17:53;5.25;;;1.65;;
75059;SDS011;63640;59.264;18.116;2022-11-15T04:20:23;4.80;;;1.90;;
75059;SDS011;63640;59.264;18.116;2022-11-15T04:23:10;4.82;;;1.63;;
75059;SDS011;63640;59.264;18.116;2022-11-15T04:25:58;4.88;;;1.77;;
75059;SDS011;63640;59.264;18.116;2022-11-15T04:28:25;5.55;;;2.00;;
75059;SDS011;63640;59.264;18.116;2022-11-15T04:30:50;5.35;;;2.17;;
75059;SDS011;63640;59.264;18.116;2022-11-15T04:33:16;5.35;;;2.13;;
75059;SDS011;63640;59.264;18.116;2022-11-15T04:35:42;5.15;;;2.30;;
75059;SDS011;63640;59.264;18.116;2022-11-15T04:38:09;6.28;;;2.38;;
75059;SDS011;63640;59.264;18.116;2022-11-15T04:40:36;4.90;;;1.92;;
75059;SDS011;63640;59.264;18.116;2022-11-15T04:43:02;5.30;;;2.40;;
75059;SDS011;63640;59.264;18.116;2022-11-15T04:45:27;6.20;;;2.20;;
75059;SDS011;63640;59.264;18.116;2022-11-15T04:47:53;6.32;;;2.33;;
75059;SDS011;63640;59.264;18.116;2022-11-15T04:50:18;5.22;;;2.10;;
75059;SDS011;63640;59.264;18.116;2022-11-15T04:52:49;6.30;;;2.70;;
75059;SDS011;63640;59.264;18.116;2022-11-15T04:55:16;5.28;;;2.30;;
75059;SDS011;63640;59.264;18.116;2022-11-15T04:57:41;5.45;;;2.17;;
75059;SDS011;63640;59.264;18.116;2022-11-15T05:00:08;5.45;;;2.10;;
75059;SDS011;63640;59.264;18.116;2022-11-15T05:02:35;5.45;;;2.13;;
75059;SDS011;63640;59.264;18.116;2022-11-15T05:05:19;7.13;;;2.40;;
75059;SDS011;63640;59.264;18.116;2022-11-15T05:07:45;5.88;;;2.45;;
75059;SDS011;63640;59.264;18.116;2022-11-15T05:10:10;8.55;;;2.60;;
75059;SDS011;63640;59.264;18.116;2022-11-15T05:12:36;6.80;;;2.50;;
75059;SDS011;63640;59.264;18.116;2022-11-15T05:15:02;5.97;;;2.30;;
75059;SDS011;63640;59.264;18.116;2022-11-15T05:17:28;4.65;;;2.10;;
75059;SDS011;63640;59.264;18.116;2022-11-15T05:19:54;6.10;;;2.30;;
75059;SDS011;63640;59.264;18.116;2022-11-15T05:22:19;6.25;;;2.40;;
75059;SDS011;63640;59.264;18.116;2022-11-15T05:24:46;6.05;;;2.40;;
75059;SDS011;63640;59.264;18.116;2022-11-15T05:27:11;7.57;;;2.42;;
75059;SDS011;63640;59.264;18.116;2022-11-15T05:29:37;6.38;;;2.45;;
75059;SDS011;63640;59.264;18.116;2022-11-15T05:32:06;6.00;;;2.17;;
75059;SDS011;63640;59.264;18.116;2022-11-15T05:34:32;5.22;;;2.22;;
75059;SDS011;63640;59.264;18.116;2022-11-15T05:36:57;7.07;;;2.40;;
75059;SDS011;63640;59.264;18.116;2022-11-15T05:39:24;5.65;;;2.22;;
75059;SDS011;63640;59.264;18.116;2022-11-15T05:42:12;6.80;;;2.63;;
75059;SDS011;63640;59.264;18.116;2022-11-15T05:44:37;5.60;;;2.38;;
75059;SDS011;63640;59.264;18.116;2022-11-15T05:47:05;9.00;;;2.72;;
75059;SDS011;63640;59.264;18.116;2022-11-15T05:49:34;6.55;;;2.10;;
75059;SDS011;63640;59.264;18.116;2022-11-15T05:52:02;5.32;;;2.00;;
75059;SDS011;63640;59.264;18.116;2022-11-15T05:54:28;6.40;;;2.45;;
75059;SDS011;63640;59.264;18.116;2022-11-15T05:56:56;5.75;;;1.90;;
75059;SDS011;63640;59.264;18.116;2022-11-15T05:59:21;7.20;;;2.53;;
75059;SDS011;63640;59.264;18.116;2022-11-15T06:01:47;5.03;;;2.00;;
75059;SDS011;63640;59.264;18.116;2022-11-15T06:04:12;6.18;;;1.70;;
75059;SDS011;63640;59.264;18.116;2022-11-15T06:06:37;5.00;;;1.77;;
75059;SDS011;63640;59.264;18.116;2022-11-15T06:09:03;4.63;;;1.80;;
75059;SDS011;63640;59.264;18.116;2022-11-15T06:11:29;4.72;;;2.10;;
75059;SDS011;63640;59.264;18.116;2022-11-15T06:13:54;6.28;;;1.92;;
75059;SDS011;63640;59.264;18.116;2022-11-15T06:16:19;7.38;;;2.03;;
75059;SDS011;63640;59.264;18.116;2022-11-15T06:18:45;4.68;;;1.50;;
75059;SDS011;63640;59.264;18.116;2022-11-15T06:21:10;4.93;;;1.15;;
75059;SDS011;63640;59.264;18.116;2022-11-15T06:23:36;6.10;;;1.30;;
75059;SDS011;63640;59.264;18.116;2022-11-15T06:26:02;3.65;;;0.95;;
75059;SDS011;63640;59.264;18.116;2022-11-15T06:28:28;5.53;;;1.17;;
75059;SDS011;63640;59.264;18.116;2022-11-15T06:30:54;4.13;;;0.93;;
75059;SDS011;63640;59.264;18.116;2022-11-15T06:33:20;5.55;;;1.20;;
75059;SDS011;63640;59.264;18.116;2022-11-15T06:35:45;5.20;;;1.20;;
75059;SDS011;63640;59.264;18.116;2022-11-15T06:38:11;3.95;;;1.20;;
75059;SDS011;63640;59.264;18.116;2022-11-15T06:40:37;3.40;;;1.05;;
75059;SDS011;63640;59.264;18.116;2022-11-15T06:43:04;6.20;;;1.27;;
75059;SDS011;63640;59.264;18.116;2022-11-15T06:45:29;4.57;;;0.95;;
75059;SDS011;63640;59.264;18.116;2022-11-15T06:47:55;3.97;;;1.10;;
75059;SDS011;63640;59.264;18.116;2022-11-15T06:50:21;4.18;;;1.23;;
75059;SDS011;63640;59.264;18.116;2022-11-15T06:52:47;5.47;;;1.10;;
75059;SDS011;63640;59.264;18.116;2022-11-15T06:55:12;3.75;;;1.20;;
75059;SDS011;63640;59.264;18.116;2022-11-15T06:57:45;3.95;;;1.23;;
75059;SDS011;63640;59.264;18.116;2022-11-15T07:00:14;5.07;;;0.90;;
75059;SDS011;63640;59.264;18.116;2022-11-15T07:02:41;8.93;;;1.52;;
75059;SDS011;63640;59.264;18.116;2022-11-15T07:05:06;5.93;;;1.23;;
75059;SDS011;63640;59.264;18.116;2022-11-15T07:07:32;4.35;;;1.20;;
75059;SDS011;63640;59.264;18.116;2022-11-15T07:09:57;6.85;;;1.00;;
75059;SDS011;63640;59.264;18.116;2022-11-15T07:12:23;3.50;;;1.05;;
75059;SDS011;63640;59.264;18.116;2022-11-15T07:14:48;3.42;;;1.02;;
75059;SDS011;63640;59.264;18.116;2022-11-15T07:17:14;4.22;;;1.13;;
75059;SDS011;63640;59.264;18.116;2022-11-15T07:19:40;4.70;;;1.10;;
75059;SDS011;63640;59.264;18.116;2022-11-15T07:22:05;2.80;;;0.88;;
75059;SDS011;63640;59.264;18.116;2022-11-15T07:24:30;4.32;;;0.90;;
75059;SDS011;63640;59.264;18.116;2022-11-15T07:26:56;3.58;;;1.05;;
75059;SDS011;63640;59.264;18.116;2022-11-15T07:29:21;3.88;;;1.17;;
75059;SDS011;63640;59.264;18.116;2022-11-15T07:31:47;4.50;;;0.90;;
75059;SDS011;63640;59.264;18.116;2022-11-15T07:34:13;3.70;;;0.90;;
75059;SDS011;63640;59.264;18.116;2022-11-15T07:36:38;3.08;;;1.00;;
75059;SDS011;63640;59.264;18.116;2022-11-15T07:39:04;6.38;;;1.00;;
75059;SDS011;63640;59.264;18.116;2022-11-15T07:41:29;7.47;;;1.02;;
75059;SDS011;63640;59.264;18.116;2022-11-15T07:43:55;6.07;;;1.27;;
75059;SDS011;63640;59.264;18.116;2022-11-15T07:46:20;6.25;;;1.25;;
75059;SDS011;63640;59.264;18.116;2022-11-15T07:48:46;4.30;;;0.90;;
75059;SDS011;63640;59.264;18.116;2022-11-15T07:51:12;3.95;;;1.20;;
75059;SDS011;63640;59.264;18.116;2022-11-15T07:53:39;3.20;;;0.70;;
75059;SDS011;63640;59.264;18.116;2022-11-15T07:56:08;3.50;;;0.93;;
75059;SDS011;63640;59.264;18.116;2022-11-15T07:58:34;3.72;;;1.02;;
75059;SDS011;63640;59.264;18.116;2022-11-15T08:01:02;5.20;;;1.02;;
75059;SDS011;63640;59.264;18.116;2022-11-15T08:03:29;4.03;;;0.98;;
75059;SDS011;63640;59.264;18.116;2022-11-15T08:05:54;6.93;;;1.00;;
75059;SDS011;63640;59.264;18.116;2022-11-15T08:08:19;5.38;;;1.08;;
75059;SDS011;63640;59.264;18.116;2022-11-15T08:10:45;2.95;;;0.93;;
75059;SDS011;63640;59.264;18.116;2022-11-15T08:13:11;5.70;;;1.00;;
75059;SDS011;63640;59.264;18.116;2022-11-15T08:15:37;4.45;;;1.20;;
75059;SDS011;63640;59.264;18.116;2022-11-15T08:18:04;4.57;;;0.93;;
75059;SDS011;63640;59.264;18.116;2022-11-15T08:20:34;5.00;;;1.20;;
75059;SDS011;63640;59.264;18.116;2022-11-15T08:23:00;2.58;;;0.90;;
75059;SDS011;63640;59.264;18.116;2022-11-15T08:25:27;5.40;;;0.93;;
75059;SDS011;63640;59.264;18.116;2022-11-15T08:27:54;4.80;;;0.90;;
75059;SDS011;63640;59.264;18.116;2022-11-15T08:30:21;4.53;;;1.10;;
75059;SDS011;63640;59.264;18.116;2022-11-15T08:32:47;5.75;;;1.95;;
75059;SDS011;63640;59.264;18.116;2022-11-15T08:35:13;4.88;;;1.20;;
75059;SDS011;63640;59.264;18.116;2022-11-15T08:37:39;5.32;;;1.05;;
75059;SDS011;63640;59.264;18.116;2022-11-15T08:40:04;4.07;;;1.05;;
75059;SDS011;63640;59.264;18.116;2022-11-15T08:42:30;5.55;;;1.17;;
75059;SDS011;63640;59.264;18.116;2022-11-15T08:44:56;4.35;;;1.10;;
75059;SDS011;63640;59.264;18.116;2022-11-15T08:47:21;5.78;;;1.30;;
75059;SDS011;63640;59.264;18.116;2022-11-15T08:49:47;6.82;;;1.20;;
75059;SDS011;63640;59.264;18.116;2022-11-15T08:52:13;4.10;;;0.90;;
75059;SDS011;63640;59.264;18.116;2022-11-15T08:54:39;3.25;;;0.93;;
75059;SDS011;63640;59.264;18.116;2022-11-15T08:57:06;4.07;;;1.13;;
75059;SDS011;63640;59.264;18.116;2022-11-15T08:59:31;4.00;;;0.95;;
75059;SDS011;63640;59.264;18.116;2022-11-15T09:01:57;5.90;;;1.10;;
75059;SDS011;63640;59.264;18.116;2022-11-15T09:04:22;2.90;;;0.80;;
75059;SDS011;63640;59.264;18.116;2022-11-15T09:06:48;4.22;;;1.00;;
75059;SDS011;63640;59.264;18.116;2022-11-15T09:09:13;9.52;;;1.20;;
75059;SDS011;63640;59.264;18.116;2022-11-15T09:11:39;7.25;;;1.27;;
75059;SDS011;63640;59.264;18.116;2022-11-15T09:14:04;7.15;;;1.10;;
75059;SDS011;63640;59.264;18.116;2022-11-15T09:16:30;5.22;;;1.10;;
75059;SDS011;63640;59.264;18.116;2022-11-15T09:18:56;3.03;;;0.90;;
75059;SDS011;63640;59.264;18.116;2022-11-15T09:21:21;5.22;;;1.00;;
75059;SDS011;63640;59.264;18.116;2022-11-15T09:23:49;6.97;;;0.80;;
75059;SDS011;63640;59.264;18.116;2022-11-15T09:26:16;3.80;;;0.93;;
75059;SDS011;63640;59.264;18.116;2022-11-15T09:28:41;3.70;;;0.70;;
75059;SDS011;63640;59.264;18.116;2022-11-15T09:31:07;2.63;;;0.73;;
75059;SDS011;63640;59.264;18.116;2022-11-15T09:33:32;3.42;;;0.90;;
75059;SDS011;63640;59.264;18.116;2022-11-15T09:36:02;3.05;;;0.80;;
75059;SDS011;63640;59.264;18.116;2022-11-15T09:38:28;3.83;;;0.80;;
75059;SDS011;63640;59.264;18.116;2022-11-15T09:40:58;4.82;;;0.90;;
75059;SDS011;63640;59.264;18.116;2022-11-15T09:49:03;1.95;;;0.70;;
75059;SDS011;63640;59.264;18.116;2022-11-15T09:51:34;4.15;;;0.80;;
75059;SDS011;63640;59.264;18.116;2022-11-15T09:56:35;2.55;;;0.80;;
75059;SDS011;63640;59.264;18.116;2022-11-15T09:59:09;2.28;;;0.70;;
75059;SDS011;63640;59.264;18.116;2022-11-15T10:04:14;2.83;;;0.80;;
75059;SDS011;63640;59.264;18.116;2022-11-15T10:06:42;2.90;;;0.90;;
75059;SDS011;63640;59.264;18.116;2022-11-15T10:14:24;2.97;;;0.90;;
75059;SDS011;63640;59.264;18.116;2022-11-15T10:22:29;2.08;;;0.75;;
75059;SDS011;63640;59.264;18.116;2022-11-15T10:25:38;3.53;;;0.90;;
75059;SDS011;63640;59.264;18.116;2022-11-15T10:27:56;3.80;;;0.88;;
75059;SDS011;63640;59.264;18.116;2022-11-15T10:30:23;4.15;;;0.82;;
75059;SDS011;63640;59.264;18.116;2022-11-15T10:32:58;5.10;;;0.70;;
75059;SDS011;63640;59.264;18.116;2022-11-15T10:35:35;3.88;;;0.80;;
75059;SDS011;63640;59.264;18.116;2022-11-15T10:38:07;3.38;;;0.73;;
75059;SDS011;63640;59.264;18.116;2022-11-15T10:40:37;3.38;;;0.70;;
75059;SDS011;63640;59.264;18.116;2022-11-15T10:43:14;4.93;;;0.80;;
75059;SDS011;63640;59.264;18.116;2022-11-15T10:45:41;3.53;;;1.02;;
75059;SDS011;63640;59.264;18.116;2022-11-15T10:50:43;3.72;;;0.77;;
75059;SDS011;63640;59.264;18.116;2022-11-15T10:55:56;4.55;;;0.90;;
75059;SDS011;63640;59.264;18.116;2022-11-15T11:01:28;5.03;;;1.05;;
75059;SDS011;63640;59.264;18.116;2022-11-15T11:06:29;2.53;;;0.80;;
75059;SDS011;63640;59.264;18.116;2022-11-15T11:11:21;3.08;;;0.88;;
75059;SDS011;63640;59.264;18.116;2022-11-15T11:13:47;3.42;;;0.90;;
75059;SDS011;63640;59.264;18.116;2022-11-15T11:21:13;3.03;;;0.82;;
75059;SDS011;63640;59.264;18.116;2022-11-15T11:29:45;4.05;;;0.90;;
75059;SDS011;63640;59.264;18.116;2022-11-15T11:48:18;3.25;;;0.98;;
75059;SDS011;63640;59.264;18.116;2022-11-15T11:50:48;2.58;;;0.80;;
75059;SDS011;63640;59.264;18.116;2022-11-15T11:53:15;4.47;;;1.10;;
75059;SDS011;63640;59.264;18.116;2022-11-15T11:55:49;4.43;;;1.20;;
75059;SDS011;63640;59.264;18.116;2022-11-15T11:58:37;2.80;;;1.17;;
75059;SDS011;63640;59.264;18.116;2022-11-15T12:09:17;3.03;;;1.20;;
75059;SDS011;63640;59.264;18.116;2022-11-15T12:14:51;3.30;;;1.00;;
75059;SDS011;63640;59.264;18.116;2022-11-15T12:17:24;5.53;;;1.48;;
75059;SDS011;63640;59.264;18.116;2022-11-15T12:19:52;4.40;;;1.00;;
75059;SDS011;63640;59.264;18.116;2022-11-15T12:22:22;5.05;;;1.20;;
75059;SDS011;63640;59.264;18.116;2022-11-15T12:24:58;3.65;;;1.10;;
75059;SDS011;63640;59.264;18.116;2022-11-15T12:27:36;3.88;;;1.20;;
75059;SDS011;63640;59.264;18.116;2022-11-15T12:30:07;3.88;;;1.00;;
75059;SDS011;63640;59.264;18.116;2022-11-15T12:32:37;7.47;;;1.15;;
75059;SDS011;63640;59.264;18.116;2022-11-15T12:35:05;6.30;;;1.30;;
75059;SDS011;63640;59.264;18.116;2022-11-15T12:37:32;3.92;;;1.10;;
75059;SDS011;63640;59.264;18.116;2022-11-15T12:40:05;6.40;;;1.50;;
75059;SDS011;63640;59.264;18.116;2022-11-15T12:45:31;3.08;;;1.00;;
75059;SDS011;63640;59.264;18.116;2022-11-15T13:07:02;2.97;;;0.88;;
75059;SDS011;63640;59.264;18.116;2022-11-15T13:12:01;4.07;;;1.42;;
75059;SDS011;63640;59.264;18.116;2022-11-15T13:14:43;10.07;;;1.10;;
75059;SDS011;63640;59.264;18.116;2022-11-15T13:19:49;4.10;;;1.20;;
75059;SDS011;63640;59.264;18.116;2022-11-15T13:22:20;3.42;;;0.88;;
75059;SDS011;63640;59.264;18.116;2022-11-15T13:25:12;4.80;;;1.15;;
75059;SDS011;63640;59.264;18.116;2022-11-15T13:27:40;3.28;;;1.00;;
75059;SDS011;63640;59.264;18.116;2022-11-15T13:30:13;5.25;;;1.23;;
75059;SDS011;63640;59.264;18.116;2022-11-15T13:32:41;3.50;;;1.10;;
75059;SDS011;63640;59.264;18.116;2022-11-15T13:35:06;6.05;;;1.00;;
75059;SDS011;63640;59.264;18.116;2022-11-15T13:37:32;4.97;;;1.08;;
75059;SDS011;63640;59.264;18.116;2022-11-15T13:40:19;4.63;;;1.20;;
75059;SDS011;63640;59.264;18.116;2022-11-15T13:42:45;3.33;;;1.08;;
75059;SDS011;63640;59.264;18.116;2022-11-15T13:45:12;4.30;;;1.10;;
75059;SDS011;63640;59.264;18.116;2022-11-15T13:47:40;4.63;;;0.98;;
75059;SDS011;63640;59.264;18.116;2022-11-15T13:50:05;2.67;;;0.90;;
75059;SDS011;63640;59.264;18.116;2022-11-15T13:52:35;5.28;;;1.42;;
75059;SDS011;63640;59.264;18.116;2022-11-15T13:55:16;4.90;;;1.20;;
75059;SDS011;63640;59.264;18.116;2022-11-15T13:57:44;4.18;;;1.00;;
75059;SDS011;63640;59.264;18.116;2022-11-15T14:05:41;5.75;;;0.80;;
75059;SDS011;63640;59.264;18.116;2022-11-15T14:08:21;6.05;;;1.15;;
75059;SDS011;63640;59.264;18.116;2022-11-15T14:10:48;4.50;;;1.00;;
75059;SDS011;63640;59.264;18.116;2022-11-15T14:13:31;4.00;;;1.10;;
75059;SDS011;63640;59.264;18.116;2022-11-15T14:16:16;5.30;;;0.98;;
75059;SDS011;63640;59.264;18.116;2022-11-15T14:18:46;4.82;;;1.33;;
75059;SDS011;63640;59.264;18.116;2022-11-15T14:21:12;5.18;;;1.25;;
75059;SDS011;63640;59.264;18.116;2022-11-15T14:23:38;3.97;;;1.17;;
75059;SDS011;63640;59.264;18.116;2022-11-15T14:26:04;5.50;;;0.95;;
75059;SDS011;63640;59.264;18.116;2022-11-15T14:28:30;1.98;;;0.70;;
75059;SDS011;63640;59.264;18.116;2022-11-15T14:31:04;3.22;;;1.00;;
75059;SDS011;63640;59.264;18.116;2022-11-15T14:33:37;3.00;;;0.80;;
75059;SDS011;63640;59.264;18.116;2022-11-15T14:36:17;5.38;;;1.27;;
75059;SDS011;63640;59.264;18.116;2022-11-15T14:38:44;4.10;;;1.17;;
75059;SDS011;63640;59.264;18.116;2022-11-15T14:41:23;3.13;;;0.80;;
75059;SDS011;63640;59.264;18.116;2022-11-15T14:43:50;1.98;;;0.80;;
75059;SDS011;63640;59.264;18.116;2022-11-15T14:46:16;3.90;;;0.85;;
75059;SDS011;63640;59.264;18.116;2022-11-15T14:48:42;5.32;;;1.13;;
75059;SDS011;63640;59.264;18.116;2022-11-15T14:51:11;2.78;;;0.70;;
75059;SDS011;63640;59.264;18.116;2022-11-15T14:53:38;4.32;;;0.88;;
75059;SDS011;63640;59.264;18.116;2022-11-15T14:56:05;7.20;;;1.30;;
75059;SDS011;63640;59.264;18.116;2022-11-15T14:58:30;4.05;;;0.80;;
75059;SDS011;63640;59.264;18.116;2022-11-15T15:00:56;4.30;;;0.85;;
75059;SDS011;63640;59.264;18.116;2022-11-15T15:03:21;5.20;;;1.00;;
75059;SDS011;63640;59.264;18.116;2022-11-15T15:05:46;3.20;;;1.13;;
75059;SDS011;63640;59.264;18.116;2022-11-15T15:08:12;2.40;;;0.80;;
75059;SDS011;63640;59.264;18.116;2022-11-15T15:10:41;4.43;;;0.90;;
75059;SDS011;63640;59.264;18.116;2022-11-15T15:13:12;4.45;;;0.77;;
75059;SDS011;63640;59.264;18.116;2022-11-15T15:15:41;3.28;;;0.82;;
75059;SDS011;63640;59.264;18.116;2022-11-15T15:18:07;3.95;;;0.90;;
75059;SDS011;63640;59.264;18.116;2022-11-15T15:20:34;4.15;;;1.35;;
75059;SDS011;63640;59.264;18.116;2022-11-15T15:23:00;4.75;;;0.88;;
75059;SDS011;63640;59.264;18.116;2022-11-15T15:25:27;5.05;;;1.10;;
75059;SDS011;63640;59.264;18.116;2022-11-15T15:27:54;3.15;;;0.80;;
75059;SDS011;63640;59.264;18.116;2022-11-15T15:30:20;4.60;;;0.98;;
75059;SDS011;63640;59.264;18.116;2022-11-15T15:32:46;4.13;;;1.30;;
75059;SDS011;63640;59.264;18.116;2022-11-15T15:35:13;4.57;;;1.00;;
75059;SDS011;63640;59.264;18.116;2022-11-15T15:37:39;3.33;;;0.90;;
75059;SDS011;63640;59.264;18.116;2022-11-15T15:40:24;3.33;;;0.90;;
75059;SDS011;63640;59.264;18.116;2022-11-15T15:42:50;4.07;;;1.00;;
75059;SDS011;63640;59.264;18.116;2022-11-15T15:45:16;4.50;;;0.80;;
75059;SDS011;63640;59.264;18.116;2022-11-15T15:47:43;5.38;;;1.20;;
75059;SDS011;63640;59.264;18.116;2022-11-15T15:50:22;4.65;;;1.27;;
75059;SDS011;63640;59.264;18.116;2022-11-15T15:52:52;6.78;;;1.25;;
75059;SDS011;63640;59.264;18.116;2022-11-15T15:55:19;4.10;;;0.93;;
75059;SDS011;63640;59.264;18.116;2022-11-15T15:57:45;2.75;;;1.00;;
75059;SDS011;63640;59.264;18.116;2022-11-15T16:00:11;4.75;;;1.10;;
75059;SDS011;63640;59.264;18.116;2022-11-15T16:02:36;2.97;;;1.20;;
75059;SDS011;63640;59.264;18.116;2022-11-15T16:05:02;4.30;;;1.20;;
75059;SDS011;63640;59.264;18.116;2022-11-15T16:07:28;4.10;;;1.25;;
75059;SDS011;63640;59.264;18.116;2022-11-15T16:09:54;4.85;;;1.10;;
75059;SDS011;63640;59.264;18.116;2022-11-15T16:12:27;3.03;;;1.10;;
75059;SDS011;63640;59.264;18.116;2022-11-15T16:14:52;5.45;;;1.50;;
75059;SDS011;63640;59.264;18.116;2022-11-15T16:17:18;4.53;;;1.30;;
75059;SDS011;63640;59.264;18.116;2022-11-15T16:19:45;4.55;;;1.20;;
75059;SDS011;63640;59.264;18.116;2022-11-15T16:22:11;5.22;;;1.10;;
75059;SDS011;63640;59.264;18.116;2022-11-15T16:24:36;4.32;;;1.20;;
75059;SDS011;63640;59.264;18.116;2022-11-15T16:27:02;4.40;;;1.38;;
75059;SDS011;63640;59.264;18.116;2022-11-15T16:29:27;5.57;;;1.42;;
75059;SDS011;63640;59.264;18.116;2022-11-15T16:31:53;5.53;;;1.50;;
75059;SDS011;63640;59.264;18.116;2022-11-15T16:34:19;6.53;;;1.75;;
75059;SDS011;63640;59.264;18.116;2022-11-15T16:36:44;4.55;;;1.83;;
75059;SDS011;63640;59.264;18.116;2022-11-15T16:39:10;4.63;;;1.38;;
75059;SDS011;63640;59.264;18.116;2022-11-15T16:41:38;4.05;;;1.50;;
75059;SDS011;63640;59.264;18.116;2022-11-15T16:44:03;5.60;;;1.40;;
75059;SDS011;63640;59.264;18.116;2022-11-15T16:46:29;3.92;;;1.40;;
75059;SDS011;63640;59.264;18.116;2022-11-15T16:48:54;2.83;;;0.90;;
75059;SDS011;63640;59.264;18.116;2022-11-15T16:51:21;2.47;;;0.80;;
75059;SDS011;63640;59.264;18.116;2022-11-15T16:53:46;3.45;;;1.00;;
75059;SDS011;63640;59.264;18.116;2022-11-15T16:56:20;2.65;;;0.90;;
75059;SDS011;63640;59.264;18.116;2022-11-15T16:58:48;2.95;;;0.90;;
75059;SDS011;63640;59.264;18.116;2022-11-15T17:01:18;2.97;;;0.75;;
75059;SDS011;63640;59.264;18.116;2022-11-15T17:06:11;1.77;;;0.88;;
75059;SDS011;63640;59.264;18.116;2022-11-15T17:08:37;3.65;;;0.70;;